createdAt,value
2019-06-10T00:00:52.489Z,70.70
2019-06-10T00:03:23.678Z,70.80
2019-06-10T00:05:55.653Z,70.20
2019-06-10T00:08:25.966Z,69.30
2019-06-10T00:10:56.306Z,69.20
2019-06-10T00:13:27.128Z,68.90
2019-06-10T00:15:58.649Z,68.80
2019-06-10T00:18:40.820Z,68.40
2019-06-10T00:21:04.972Z,68.00
2019-06-10T00:23:35.024Z,67.50
2019-06-10T00:26:08.059Z,67.10
2019-06-10T00:28:40.659Z,66.40
2019-06-10T00:31:11.664Z,66.20
2019-06-10T00:33:42.626Z,66.10
2019-06-10T00:36:13.681Z,65.80
2019-06-10T00:38:44.486Z,66.20
2019-06-10T00:41:15.024Z,66.80
2019-06-10T00:43:45.336Z,67.00
2019-06-10T00:46:15.636Z,67.50
2019-06-10T00:48:46.793Z,68.20
2019-06-10T00:51:17.160Z,68.80
2019-06-10T00:53:47.500Z,69.00
2019-06-10T00:56:21.606Z,69.40
2019-06-10T00:58:51.698Z,70.50
2019-06-10T01:01:22.221Z,70.20
2019-06-10T01:03:56.734Z,70.60
2019-06-10T01:06:32.405Z,71.60
2019-06-10T01:09:13.504Z,71.60
2019-06-10T01:11:53.112Z,72.20
2019-06-10T01:14:31.864Z,70.50
2019-06-10T01:17:11.947Z,71.10
2019-06-10T01:19:46.854Z,71.10
2019-06-10T01:22:27.740Z,72.10
2019-06-10T01:25:02.555Z,73.10
2019-06-10T01:27:40.887Z,73.00
2019-06-10T01:30:22.572Z,74.60
2019-06-10T01:32:55.633Z,75.30
2019-06-10T01:35:31.694Z,75.60
2019-06-10T01:38:09.903Z,77.40
2019-06-10T01:40:44.844Z,78.10
2019-06-10T01:43:21.375Z,81.10
2019-06-10T01:45:56.446Z,81.00
2019-06-10T01:48:44.258Z,81.00
2019-06-10T01:51:14.874Z,82.50
2019-06-10T01:53:52.794Z,82.40
2019-06-10T01:56:28.208Z,83.00
2019-06-10T01:59:05.674Z,84.00
2019-06-10T02:02:01.883Z,83.90
2019-06-10T02:04:42.164Z,85.70
2019-06-10T02:07:22.700Z,86.10
2019-06-10T02:09:56.463Z,85.80
2019-06-10T02:12:31.582Z,85.90
2019-06-10T02:15:07.953Z,84.80
2019-06-10T02:17:45.660Z,85.20
2019-06-10T02:20:19.743Z,87.10
2019-06-10T02:22:51.575Z,86.90
2019-06-10T02:25:22.995Z,86.30
2019-06-10T02:27:53.654Z,87.10
2019-06-10T02:30:40.487Z,87.10
2019-06-10T02:32:57.524Z,87.20
2019-06-10T02:35:40.201Z,87.10
2019-06-10T02:38:03.522Z,88.20
2019-06-10T02:40:36.552Z,87.10
2019-06-10T02:43:06.246Z,87.10
2019-06-10T02:45:37.776Z,87.80
2019-06-10T02:48:08.769Z,88.50
2019-06-10T02:50:59.245Z,89.10
2019-06-10T02:53:32.189Z,89.10
2019-06-10T02:56:04.183Z,89.00
2019-06-10T02:58:38.807Z,90.20
2019-06-10T03:01:07.049Z,91.60
2019-06-10T03:03:44.234Z,91.30
2019-06-10T03:06:13.741Z,91.40
2019-06-10T03:08:43.751Z,91.10
2019-06-10T03:11:16.421Z,91.70
2019-06-10T03:13:46.861Z,91.00
2019-06-10T03:16:52.813Z,91.30
2019-06-10T03:19:40.906Z,91.30
2019-06-10T03:21:55.838Z,91.30
2019-06-10T03:24:27.441Z,91.40
2019-06-10T03:26:58.126Z,91.60
2019-06-10T03:29:29.163Z,91.40
2019-06-10T03:32:04.568Z,91.00
2019-06-10T03:34:40.789Z,91.30
2019-06-10T03:37:05.627Z,90.70
2019-06-10T03:39:37.083Z,90.80
2019-06-10T03:42:07.286Z,90.60
2019-06-10T03:44:38.231Z,91.00
2019-06-10T03:47:08.847Z,90.50
2019-06-10T03:49:49.975Z,91.40
2019-06-10T03:52:12.929Z,90.80
2019-06-10T03:54:44.153Z,91.20
2019-06-10T03:57:15.235Z,91.20
2019-06-10T03:59:45.765Z,90.90
2019-06-10T04:02:17.298Z,91.30
2019-06-10T04:04:47.821Z,91.30
2019-06-10T04:07:20.870Z,91.00
2019-06-10T04:09:52.631Z,90.60
2019-06-10T04:12:24.718Z,91.50
2019-06-10T04:14:55.475Z,91.00
2019-06-10T04:17:27.366Z,90.70
2019-06-10T04:20:09.282Z,90.40
2019-06-10T04:22:32.939Z,90.00
2019-06-10T04:25:04.565Z,89.70
2019-06-10T04:27:35.828Z,88.80
2019-06-10T04:30:07.544Z,88.40
2019-06-10T04:32:38.197Z,87.80
2019-06-10T04:35:09.037Z,87.80
2019-06-10T04:37:42.612Z,86.40
2019-06-10T04:40:13.313Z,85.40
2019-06-10T04:42:44.621Z,84.20
2019-06-10T04:45:15.327Z,83.90
2019-06-10T04:47:45.586Z,83.00
2019-06-10T04:50:24.696Z,81.90
2019-06-10T04:52:48.489Z,81.00
2019-06-10T04:55:21.219Z,80.30
2019-06-10T04:57:52.100Z,78.50
2019-06-10T05:00:24.088Z,78.30
2019-06-10T05:02:54.899Z,77.90
2019-06-10T05:05:27.239Z,78.10
2019-06-10T05:07:58.667Z,78.20
2019-06-10T05:10:33.003Z,78.20
2019-06-10T05:13:03.118Z,77.50
2019-06-10T05:15:35.024Z,76.40
2019-06-10T05:18:05.628Z,75.90
2019-06-10T05:20:50.801Z,76.20
2019-06-10T05:23:08.099Z,76.70
2019-06-10T05:25:38.439Z,78.10
2019-06-10T05:28:08.959Z,78.20
2019-06-10T05:30:39.236Z,78.10
2019-06-10T05:33:09.539Z,77.90
2019-06-10T05:35:42.571Z,77.40
2019-06-10T05:38:13.026Z,77.10
2019-06-10T05:40:43.965Z,76.60
2019-06-10T05:43:14.393Z,76.50
2019-06-10T05:45:45.352Z,76.10
2019-06-10T05:48:17.847Z,76.20
2019-06-10T05:51:00.085Z,76.30
2019-06-10T05:53:23.117Z,76.40
2019-06-10T05:55:53.053Z,76.50
2019-06-10T05:58:24.738Z,76.20
2019-06-10T06:00:55.348Z,75.40
2019-06-10T06:03:26.067Z,75.10
2019-06-10T06:05:56.883Z,74.00
2019-06-10T06:08:29.141Z,73.40
2019-06-10T06:11:03.184Z,72.60
2019-06-10T06:13:35.889Z,71.90
2019-06-10T06:16:05.264Z,71.10
2019-06-10T06:18:36.490Z,70.80
2019-06-10T06:21:22.445Z,70.10
2019-06-10T06:23:43.698Z,69.80
2019-06-10T06:26:16.221Z,69.60
2019-06-10T06:28:45.863Z,69.50
2019-06-10T06:31:16.591Z,69.20
2019-06-10T06:33:46.998Z,68.90
2019-06-10T06:36:17.751Z,68.90
2019-06-10T06:38:48.328Z,68.60
2019-06-10T06:41:19.081Z,68.20
2019-06-10T06:43:49.797Z,67.10
2019-06-10T06:46:19.990Z,66.30
2019-06-10T06:48:52.948Z,66.00
2019-06-10T06:51:35.839Z,64.50
2019-06-10T06:53:56.557Z,63.90
2019-06-10T06:56:27.172Z,63.30
2019-06-10T06:58:57.427Z,62.60
2019-06-10T07:01:27.956Z,61.90
2019-06-10T07:03:58.228Z,61.20
2019-06-10T07:06:30.465Z,60.00
2019-06-10T07:09:07.683Z,58.80
2019-06-10T07:11:39.862Z,58.80
2019-06-10T07:14:12.865Z,58.40
2019-06-10T07:16:46.050Z,59.20
2019-06-10T07:19:14.439Z,58.40
2019-06-10T07:22:05.340Z,58.50
2019-06-10T07:24:17.841Z,58.20
2019-06-10T07:26:52.208Z,57.30
2019-06-10T07:29:22.650Z,58.10
2019-06-10T07:31:57.116Z,58.30
2019-06-10T07:34:27.375Z,58.10
2019-06-10T07:36:57.938Z,58.50
2019-06-10T07:39:28.986Z,60.70
2019-06-10T07:41:59.789Z,63.20
2019-06-10T07:44:30.424Z,64.30
2019-06-10T07:47:02.603Z,64.10
2019-06-10T07:49:33.861Z,63.50
2019-06-10T07:52:15.517Z,62.90
2019-06-10T07:54:39.241Z,62.70
2019-06-10T07:57:13.213Z,61.20
2019-06-10T07:59:45.783Z,62.40
2019-06-10T08:02:16.014Z,63.10
2019-06-10T08:04:46.665Z,63.00
2019-06-10T08:07:17.751Z,62.50
2019-06-10T08:09:48.727Z,61.60
2019-06-10T08:12:19.872Z,63.00
2019-06-10T08:14:53.013Z,64.20
2019-06-10T08:17:22.631Z,64.60
2019-06-10T08:19:54.388Z,64.30
2019-06-10T08:22:33.504Z,63.90
2019-06-10T08:24:56.930Z,63.20
2019-06-10T08:27:27.181Z,63.10
2019-06-10T08:30:14.069Z,62.90
2019-06-10T08:32:29.877Z,61.70
2019-06-10T08:35:02.799Z,61.40
2019-06-10T08:37:33.167Z,60.90
2019-06-10T08:40:03.953Z,61.40
2019-06-10T08:42:34.451Z,61.00
2019-06-10T08:45:05.969Z,61.80
2019-06-10T08:47:37.043Z,61.60
2019-06-10T08:50:07.830Z,61.00
2019-06-10T08:53:01.475Z,61.20
2019-06-10T08:55:12.532Z,61.20
2019-06-10T08:57:47.049Z,61.60
2019-06-10T09:00:18.760Z,61.00
2019-06-10T09:02:50.824Z,60.80
2019-06-10T09:05:23.240Z,60.60
2019-06-10T09:07:54.485Z,61.00
2019-06-10T09:10:25.234Z,60.70
2019-06-10T09:12:55.830Z,59.60
2019-06-10T09:15:26.789Z,62.10
2019-06-10T09:17:58.474Z,60.40
2019-06-10T09:20:29.459Z,60.30
2019-06-10T09:23:18.365Z,59.20
2019-06-10T09:25:33.508Z,59.00
2019-06-10T09:28:05.834Z,60.00
2019-06-10T09:30:36.797Z,58.80
2019-06-10T09:33:07.167Z,58.40
2019-06-10T09:35:44.125Z,57.50
2019-06-10T09:38:14.229Z,58.70
2019-06-10T09:41:01.698Z,59.60
2019-06-10T09:43:29.413Z,59.80
2019-06-10T09:46:03.236Z,59.70
2019-06-10T09:48:33.521Z,59.30
2019-06-10T09:51:04.327Z,59.50
2019-06-10T09:53:46.492Z,59.90
2019-06-10T09:56:12.512Z,60.30
2019-06-10T09:58:46.039Z,60.40
2019-06-10T10:01:14.857Z,59.60
2019-06-10T10:03:50.201Z,60.30
2019-06-10T10:06:18.052Z,59.90
2019-06-10T10:08:52.665Z,58.50
2019-06-10T10:11:23.047Z,58.60
2019-06-10T10:13:53.365Z,59.40
2019-06-10T10:16:24.364Z,58.80
2019-06-10T10:19:00.227Z,58.20
2019-06-10T10:21:28.379Z,57.40
2019-06-10T10:24:07.099Z,55.90
2019-06-10T10:26:31.266Z,55.70
2019-06-10T10:29:02.824Z,56.40
2019-06-10T10:31:34.682Z,63.10
2019-06-10T10:34:10.054Z,61.60
2019-06-10T10:36:38.380Z,59.50
2019-06-10T10:39:09.681Z,57.50
2019-06-10T10:41:43.183Z,56.60
2019-06-10T10:44:14.823Z,57.00
2019-06-10T10:46:46.063Z,56.60
2019-06-10T10:49:17.700Z,55.40
2019-06-10T10:51:49.055Z,55.50
2019-06-10T10:54:29.708Z,55.70
2019-06-10T10:56:58.636Z,55.20
2019-06-10T10:59:25.083Z,51.90
2019-06-10T11:01:55.870Z,50.70
2019-06-10T11:04:26.598Z,52.30
2019-06-10T11:06:58.958Z,52.40
2019-06-10T11:09:29.303Z,51.30
2019-06-10T11:12:02.853Z,51.30
2019-06-10T11:14:34.216Z,50.50
2019-06-10T11:17:04.630Z,50.20
2019-06-10T11:19:35.220Z,48.90
2019-06-10T11:22:05.849Z,50.90
2019-06-10T11:24:41.160Z,50.40
2019-06-10T11:27:08.272Z,48.50
2019-06-10T11:29:38.949Z,47.70
2019-06-10T11:32:09.668Z,48.10
2019-06-10T11:34:42.897Z,48.70
2019-06-10T11:37:12.948Z,48.90
2019-06-10T11:39:45.798Z,48.60
2019-06-10T11:42:17.758Z,48.40
2019-06-10T11:44:48.391Z,48.50
2019-06-10T11:47:18.854Z,48.60
2019-06-10T11:49:53.467Z,48.70
2019-06-10T11:52:23.038Z,49.30
2019-06-10T11:55:05.545Z,48.80
2019-06-10T11:57:25.802Z,49.40
2019-06-10T11:59:57.481Z,48.30
2019-06-10T12:02:28.302Z,46.80
2019-06-10T12:05:01.505Z,46.60
2019-06-10T12:07:33.216Z,46.80
2019-06-10T12:10:05.273Z,46.20
2019-06-10T12:12:36.840Z,46.50
2019-06-10T12:15:08.570Z,46.70
2019-06-10T12:17:49.844Z,47.00
2019-06-10T12:20:13.359Z,47.10
2019-06-10T12:22:44.791Z,47.20
2019-06-10T12:25:31.349Z,48.00
2019-06-10T12:27:51.288Z,47.40
2019-06-10T12:30:24.374Z,47.40
2019-06-10T12:32:58.717Z,48.20
2019-06-10T12:35:27.006Z,48.50
2019-06-10T12:37:59.825Z,48.40
2019-06-10T12:40:29.845Z,48.40
2019-06-10T12:43:01.659Z,47.80
2019-06-10T12:45:33.468Z,46.20
2019-06-10T12:48:06.363Z,45.80
2019-06-10T12:50:36.471Z,45.00
2019-06-10T12:53:07.269Z,44.40
2019-06-10T12:55:43.020Z,44.30
2019-06-10T12:58:11.014Z,43.30
2019-06-10T13:00:46.105Z,42.10
2019-06-10T13:03:16.396Z,41.20
2019-06-10T13:05:46.628Z,41.20
2019-06-10T13:08:20.355Z,41.40
2019-06-10T13:10:50.244Z,42.00
2019-06-10T13:13:22.765Z,41.30
2019-06-10T13:15:53.349Z,42.50
2019-06-10T13:18:24.098Z,42.10
2019-06-10T13:20:56.304Z,42.20
2019-06-10T13:23:31.905Z,42.50
2019-06-10T13:26:04.275Z,41.90
2019-06-10T13:28:32.739Z,41.60
2019-06-10T13:31:06.151Z,41.10
2019-06-10T13:33:35.207Z,40.60
2019-06-10T13:36:06.898Z,41.20
2019-06-10T13:38:37.339Z,40.80
2019-06-10T13:41:07.843Z,40.80
2019-06-10T13:43:38.746Z,40.90
2019-06-10T13:46:10.864Z,40.40
2019-06-10T13:48:43.077Z,40.60
2019-06-10T13:51:15.650Z,41.30
2019-06-10T13:53:46.266Z,42.00
2019-06-10T13:56:41.759Z,42.50
2019-06-10T13:58:52.293Z,43.50
2019-06-10T14:01:22.740Z,44.00
2019-06-10T14:03:53.784Z,43.70
2019-06-10T14:06:39.650Z,44.50
2019-06-10T14:08:56.647Z,44.70
2019-06-10T14:11:30.060Z,43.60
2019-06-10T14:13:59.349Z,45.60
2019-06-10T14:16:34.011Z,46.80
2019-06-10T14:19:07.280Z,47.20
2019-06-10T14:21:37.077Z,47.20
2019-06-10T14:24:08.185Z,47.20
2019-06-10T14:26:44.713Z,47.50
2019-06-10T14:29:15.133Z,47.40
2019-06-10T14:31:45.085Z,47.00
2019-06-10T14:34:18.040Z,46.30
2019-06-10T14:36:47.209Z,46.40
2019-06-10T14:39:17.760Z,47.40
2019-06-10T14:41:48.138Z,47.60
2019-06-10T14:44:18.416Z,47.40
2019-06-10T14:46:49.089Z,47.70
2019-06-10T14:49:22.183Z,48.50
2019-06-10T14:51:54.071Z,49.70
2019-06-10T14:54:24.252Z,50.10
2019-06-10T14:56:57.330Z,50.70
2019-06-10T14:59:26.723Z,50.40
2019-06-10T15:01:57.107Z,51.20
2019-06-10T15:04:27.921Z,51.90
2019-06-10T15:06:58.264Z,52.30
2019-06-10T15:09:28.972Z,52.70
2019-06-10T15:11:59.835Z,54.10
2019-06-10T15:14:32.958Z,54.60
2019-06-10T15:17:03.142Z,55.70
2019-06-10T15:19:33.421Z,56.60
2019-06-10T15:22:03.810Z,57.00
2019-06-10T15:24:34.345Z,57.20
2019-06-10T15:27:12.613Z,57.10
2019-06-10T15:29:37.216Z,57.30
2019-06-10T15:32:15.316Z,57.50
2019-06-10T15:34:40.342Z,58.10
2019-06-10T15:37:14.217Z,58.70
2019-06-10T15:39:44.430Z,59.00
2019-06-10T15:42:16.080Z,59.00
2019-06-10T15:44:52.273Z,59.70
2019-06-10T15:47:21.123Z,60.30
2019-06-10T15:49:52.547Z,61.80
2019-06-10T15:52:25.047Z,63.80
2019-06-10T15:55:00.036Z,66.30
2019-06-10T15:57:40.631Z,70.90
2019-06-10T16:00:14.328Z,75.50
2019-06-10T16:02:41.836Z,78.20
2019-06-10T16:05:14.383Z,76.60
2019-06-10T16:07:48.962Z,75.50
2019-06-10T16:10:23.342Z,76.30
2019-06-10T16:12:52.782Z,77.40
2019-06-10T16:15:26.690Z,77.30
2019-06-10T16:17:59.231Z,77.10
2019-06-10T16:20:32.411Z,77.90
2019-06-10T16:23:03.718Z,79.00
2019-06-10T16:25:34.932Z,80.70
2019-06-10T16:28:06.120Z,81.60
2019-06-10T16:30:36.534Z,82.60
2019-06-10T16:33:13.091Z,82.10
2019-06-10T16:35:43.775Z,82.90
2019-06-10T16:38:14.913Z,83.90
2019-06-10T16:40:45.306Z,85.00
2019-06-10T16:43:17.747Z,89.20
2019-06-10T16:45:48.307Z,96.40
2019-06-10T16:48:21.524Z,98.00
2019-06-10T16:50:54.300Z,98.60
2019-06-10T16:53:30.509Z,99.90
2019-06-10T16:55:59.981Z,99.90
2019-06-10T16:58:30.452Z,99.90
2019-06-10T17:01:03.557Z,99.90
2019-06-10T17:03:39.251Z,99.90
2019-06-10T17:06:12.920Z,99.90
2019-06-10T17:08:43.047Z,99.90
2019-06-10T17:11:13.177Z,99.90
2019-06-10T17:13:43.826Z,99.90
2019-06-10T17:16:14.284Z,99.90
2019-06-10T17:18:44.745Z,99.90
2019-06-10T17:21:15.475Z,99.90
2019-06-10T17:23:48.695Z,99.90
2019-06-10T17:26:22.736Z,99.90
2019-06-10T17:28:52.118Z,99.90
2019-06-10T17:31:26.890Z,99.90
2019-06-10T17:33:55.204Z,99.90
2019-06-10T17:36:27.992Z,99.90
2019-06-10T17:38:57.715Z,99.90
2019-06-10T17:41:30.307Z,99.90
2019-06-10T17:44:03.503Z,99.90
2019-06-10T17:46:35.196Z,99.90
2019-06-10T17:49:07.512Z,99.90
2019-06-10T17:51:39.506Z,99.90
2019-06-10T17:54:12.778Z,99.90
2019-06-10T17:56:43.157Z,99.90
2019-06-10T17:59:13.545Z,99.90
2019-06-10T18:01:44.692Z,99.90
2019-06-10T18:04:14.953Z,99.90
2019-06-10T18:06:45.784Z,99.90
2019-06-10T18:09:22.702Z,99.90
2019-06-10T18:11:52.419Z,99.90
2019-06-10T18:14:23.252Z,99.90
2019-06-10T18:16:55.174Z,99.90
2019-06-10T18:19:26.284Z,99.90
2019-06-10T18:21:56.840Z,99.90
2019-06-10T18:24:28.905Z,99.90
2019-06-10T18:27:02.149Z,99.90
2019-06-10T18:29:35.485Z,99.90
2019-06-10T18:32:05.900Z,99.90
2019-06-10T18:34:38.001Z,99.90
2019-06-10T18:37:08.527Z,99.90
2019-06-10T18:39:39.917Z,99.90
2019-06-10T18:42:12.674Z,99.90
2019-06-10T18:44:43.921Z,99.90
2019-06-10T18:47:14.191Z,99.90
2019-06-10T18:49:44.749Z,99.90
2019-06-10T18:52:15.688Z,99.90
2019-06-10T18:54:46.084Z,99.90
2019-06-10T18:57:16.550Z,99.90
2019-06-10T18:59:47.409Z,99.90
2019-06-10T19:02:18.378Z,99.90
2019-06-10T19:04:50.304Z,99.90
2019-06-10T19:07:22.702Z,99.90
2019-06-10T19:09:55.134Z,99.90
2019-06-10T19:12:25.563Z,99.90
2019-06-10T19:14:56.741Z,99.90
2019-06-10T19:17:27.523Z,99.90
2019-06-10T19:19:58.617Z,99.90
2019-06-10T19:22:30.038Z,99.90
2019-06-10T19:25:00.401Z,99.90
2019-06-10T19:27:33.592Z,99.90
2019-06-10T19:30:03.995Z,99.90
2019-06-10T19:32:36.711Z,99.90
2019-06-10T19:35:08.291Z,99.90
2019-06-10T19:37:40.500Z,99.90
2019-06-10T19:40:12.400Z,99.90
2019-06-10T19:42:45.339Z,99.90
2019-06-10T19:45:17.256Z,99.90
2019-06-10T19:47:49.168Z,99.90
2019-06-10T19:50:24.979Z,99.90
2019-06-10T19:52:56.312Z,99.90
2019-06-10T19:55:27.131Z,99.90
2019-06-10T19:57:57.484Z,99.90
2019-06-10T20:00:28.623Z,99.90
2019-06-10T20:02:59.804Z,99.90
2019-06-10T20:05:32.558Z,99.90
2019-06-10T20:08:03.210Z,99.90
2019-06-10T20:10:34.547Z,99.90
2019-06-10T20:13:05.548Z,99.90
2019-06-10T20:15:37.327Z,99.90
2019-06-10T20:18:08.168Z,99.90
2019-06-10T20:20:40.137Z,99.90
2019-06-10T20:23:11.377Z,99.90
2019-06-10T20:25:44.468Z,99.90
2019-06-10T20:28:15.722Z,99.90
2019-06-10T20:30:49.012Z,99.90
2019-06-10T20:33:33.871Z,99.90
2019-06-10T20:36:06.605Z,99.90
2019-06-10T20:38:35.546Z,99.90
2019-06-10T20:41:06.225Z,99.90
2019-06-10T20:43:37.337Z,99.90
2019-06-10T20:46:08.951Z,99.90
2019-06-10T20:48:39.199Z,99.90
2019-06-10T20:51:12.733Z,99.90
2019-06-10T20:53:43.226Z,99.90
2019-06-10T20:56:15.233Z,99.90
2019-06-10T20:58:46.785Z,99.90
2019-06-10T21:01:19.253Z,99.90
2019-06-10T21:03:51.023Z,99.90
2019-06-10T21:06:24.344Z,99.90
2019-06-10T21:08:56.415Z,99.90
2019-06-10T21:11:26.769Z,99.90
2019-06-10T21:14:00.128Z,99.90
2019-06-10T21:16:32.168Z,99.90
2019-06-10T21:19:02.365Z,99.90
2019-06-10T21:21:34.603Z,99.90
2019-06-10T21:24:04.804Z,99.90
2019-06-10T21:26:36.268Z,99.90
2019-06-10T21:29:06.841Z,99.90
2019-06-10T21:31:38.026Z,99.90
2019-06-10T21:34:08.927Z,99.90
2019-06-10T21:36:41.238Z,99.90
2019-06-10T21:39:11.569Z,99.90
2019-06-10T21:41:45.629Z,99.90
2019-06-10T21:44:15.996Z,99.90
2019-06-10T21:46:47.604Z,99.90
2019-06-10T21:49:18.952Z,99.90
2019-06-10T21:51:51.187Z,99.90
2019-06-10T21:54:22.496Z,99.90
2019-06-10T21:56:55.446Z,99.90
2019-06-10T21:59:25.530Z,99.90
2019-06-10T22:01:56.215Z,99.90
2019-06-10T22:04:27.123Z,99.90
2019-06-10T22:06:57.868Z,99.90
2019-06-10T22:09:29.589Z,99.90
2019-06-10T22:12:02.706Z,99.90
2019-06-10T22:14:33.054Z,99.90
2019-06-10T22:17:03.881Z,99.90
2019-06-10T22:19:34.205Z,99.90
2019-06-10T22:22:04.821Z,99.90
2019-06-10T22:24:36.499Z,99.90
2019-06-10T22:27:06.983Z,99.90
2019-06-10T22:29:37.759Z,99.90
2019-06-10T22:32:08.182Z,99.90
2019-06-10T22:34:39.027Z,99.90
2019-06-10T22:37:09.308Z,99.90
2019-06-10T22:39:41.923Z,99.90
2019-06-10T22:42:12.237Z,99.90
2019-06-10T22:44:43.349Z,99.90
2019-06-10T22:47:13.607Z,99.90
2019-06-10T22:49:44.176Z,99.90
2019-06-10T22:52:15.193Z,99.90
2019-06-10T22:54:45.599Z,99.90
2019-06-10T22:57:17.313Z,99.90
2019-06-10T22:59:48.652Z,99.90
2019-06-10T23:02:19.185Z,99.90
2019-06-10T23:04:51.033Z,99.90
2019-06-10T23:07:23.048Z,99.90
2019-06-10T23:09:55.727Z,99.90
2019-06-10T23:12:27.138Z,99.90
2019-06-10T23:14:59.307Z,99.90
2019-06-10T23:17:30.550Z,99.90
2019-06-10T23:20:03.199Z,99.90
2019-06-10T23:22:35.400Z,99.90
2019-06-10T23:25:09.112Z,99.90
2019-06-10T23:27:41.943Z,99.90
2019-06-10T23:30:12.138Z,99.90
2019-06-10T23:32:43.026Z,99.90
2019-06-10T23:35:13.285Z,99.90
2019-06-10T23:37:43.724Z,99.90
2019-06-10T23:40:14.279Z,99.90
2019-06-10T23:42:44.963Z,99.90
2019-06-10T23:45:15.339Z,99.90
2019-06-10T23:47:46.992Z,99.90
2019-06-10T23:50:17.230Z,99.90
2019-06-10T23:52:47.907Z,99.90
2019-06-10T23:55:18.135Z,99.90
2019-06-10T23:57:49.360Z,99.90
